createdAt,value
2022-08-22T00:02:41.538Z,49.83
2022-08-22T05:46:10.756Z,79.67
2022-08-22T05:50:17.461Z,79.22
2022-08-22T05:54:33.753Z,79.53
2022-08-22T05:58:48.776Z,79.89
2022-08-22T06:03:06.061Z,79.89
2022-08-22T06:07:14.637Z,79.76
2022-08-22T06:11:25.549Z,78.82
2022-08-22T06:15:46.256Z,70.69
2022-08-22T06:19:55.308Z,67.75
2022-08-22T06:24:00.712Z,64.66
2022-08-22T06:28:08.100Z,66.99
2022-08-22T06:32:14.974Z,67.32
2022-08-22T06:36:33.871Z,67.30
2022-08-22T06:40:37.875Z,63.80
2022-08-22T06:44:46.040Z,62.50
2022-08-22T06:48:49.756Z,58.66
2022-08-22T06:53:00.942Z,57.79
2022-08-22T06:57:06.509Z,56.81
2022-08-22T07:01:13.823Z,55.55
2022-08-22T07:05:21.708Z,55.04
2022-08-22T07:09:30.104Z,54.88
2022-08-22T07:13:33.956Z,56.64
2022-08-22T07:17:40.611Z,54.91
2022-08-22T07:21:45.468Z,52.94
2022-08-22T07:25:54.220Z,52.45
2022-08-22T07:30:04.146Z,52.28
2022-08-22T07:34:25.599Z,52.75
2022-08-22T07:38:42.555Z,54.31
2022-08-22T07:42:52.868Z,56.69
2022-08-22T07:47:00.405Z,58.75
2022-08-22T07:51:07.823Z,58.73
2022-08-22T07:55:17.465Z,58.94
2022-08-22T07:59:22.528Z,59.19
2022-08-22T08:03:28.414Z,58.64
2022-08-22T08:07:32.225Z,59.10
2022-08-22T08:11:40.776Z,58.49
2022-08-22T08:15:46.367Z,58.15
2022-08-22T08:19:50.744Z,57.78
2022-08-22T08:23:55.940Z,57.09
2022-08-22T08:28:18.215Z,56.72
2022-08-22T08:32:24.453Z,56.04
2022-08-22T08:36:38.518Z,55.51
2022-08-22T08:41:27.720Z,55.09
2022-08-22T08:45:48.868Z,54.29
2022-08-22T08:50:20.639Z,52.51
2022-08-22T08:54:44.299Z,49.77
2022-08-22T08:58:58.805Z,47.92
2022-08-22T09:03:11.068Z,47.64
2022-08-22T09:07:40.557Z,47.96
2022-08-22T09:12:12.812Z,46.18
2022-08-22T09:16:45.051Z,45.13
2022-08-22T09:21:31.525Z,44.85
2022-08-22T09:25:40.347Z,44.44
2022-08-22T09:29:54.911Z,43.66
2022-08-22T09:34:08.809Z,43.41
2022-08-22T09:38:34.653Z,43.60
2022-08-22T09:42:46.991Z,43.51
2022-08-22T09:46:59.087Z,42.12
2022-08-22T09:51:31.603Z,41.80
2022-08-22T09:55:44.948Z,41.03
2022-08-22T10:00:14.477Z,40.78
2022-08-22T10:04:43.035Z,39.72
2022-08-22T10:08:50.536Z,38.32
2022-08-22T10:12:59.401Z,37.83
2022-08-22T10:17:12.296Z,38.02
2022-08-22T10:21:24.696Z,38.04
2022-08-22T10:25:36.274Z,38.02
2022-08-22T10:30:01.775Z,37.87
2022-08-22T10:34:10.624Z,38.43
2022-08-22T10:38:21.452Z,38.36
2022-08-22T10:42:35.350Z,37.71
2022-08-22T10:46:46.963Z,37.59
2022-08-22T10:50:52.140Z,38.00
2022-08-22T10:55:01.489Z,36.74
2022-08-22T10:59:29.057Z,36.93
2022-08-22T11:03:43.244Z,36.20
2022-08-22T11:07:54.671Z,35.91
2022-08-22T11:12:04.695Z,35.70
2022-08-22T11:16:20.227Z,34.87
2022-08-22T11:20:32.782Z,35.02
2022-08-22T11:25:11.401Z,34.37
2022-08-22T11:29:41.200Z,34.63
2022-08-22T11:33:53.006Z,35.03
2022-08-22T11:38:03.522Z,34.35
2022-08-22T11:42:11.498Z,33.70
2022-08-22T11:46:26.222Z,33.06
2022-08-22T11:50:42.258Z,32.51
2022-08-22T11:55:15.504Z,31.89
2022-08-22T11:59:28.927Z,32.00
2022-08-22T12:03:47.265Z,31.83
2022-08-22T12:08:09.793Z,31.77
2022-08-22T12:12:22.710Z,31.53
2022-08-22T12:16:33.353Z,31.32
2022-08-22T12:20:54.312Z,30.90
2022-08-22T12:25:08.144Z,30.75
2022-08-22T12:29:28.570Z,31.28
2022-08-22T12:34:06.545Z,30.67
2022-08-22T12:38:28.937Z,30.47
2022-08-22T12:42:51.206Z,31.25
2022-08-22T12:47:15.206Z,31.27
2022-08-22T12:51:33.512Z,31.14
2022-08-22T12:55:56.369Z,31.41
2022-08-22T13:00:11.707Z,31.21
2022-08-22T13:04:32.419Z,32.29
2022-08-22T13:08:42.372Z,31.24
2022-08-22T13:12:48.854Z,31.04
2022-08-22T13:16:56.348Z,30.08
2022-08-22T13:21:03.661Z,31.02
2022-08-22T13:25:09.289Z,30.71
2022-08-22T13:29:26.924Z,31.63
2022-08-22T13:33:35.035Z,32.62
2022-08-22T13:37:40.018Z,32.29
2022-08-22T13:41:50.204Z,32.17
2022-08-22T13:45:56.629Z,32.38
2022-08-22T13:50:07.936Z,31.87
2022-08-22T13:54:36.384Z,31.24
2022-08-22T13:58:45.952Z,31.31
2022-08-22T14:03:00.954Z,30.19
2022-08-22T14:07:24.599Z,29.90
2022-08-22T14:11:37.930Z,29.94
2022-08-22T14:15:45.476Z,28.80
2022-08-22T14:19:58.960Z,28.34
2022-08-22T14:24:07.380Z,28.93
2022-08-22T14:28:27.349Z,30.05
2022-08-22T14:32:41.787Z,29.10
2022-08-22T14:36:50.389Z,29.57
2022-08-22T14:40:56.725Z,28.93
2022-08-22T14:45:07.042Z,27.97
2022-08-22T14:49:28.787Z,27.50
2022-08-22T14:53:35.860Z,28.29
2022-08-22T14:57:46.323Z,28.73
2022-08-22T15:01:56.965Z,27.72
2022-08-22T15:06:03.504Z,28.94
2022-08-22T15:10:20.759Z,29.37
2022-08-22T15:14:28.180Z,29.49
2022-08-22T15:18:36.769Z,28.29
2022-08-22T15:22:45.471Z,27.05
2022-08-22T15:26:55.442Z,25.83
2022-08-22T15:31:05.545Z,26.13
2022-08-22T15:35:11.883Z,26.66
2022-08-22T15:39:32.676Z,27.08
2022-08-22T15:43:47.698Z,26.42
2022-08-22T15:47:53.066Z,26.46
2022-08-22T15:52:11.197Z,26.88
2022-08-22T15:56:24.484Z,26.60
2022-08-22T16:00:33.488Z,27.27
2022-08-22T16:04:49.180Z,27.41
2022-08-22T16:08:55.323Z,26.84
2022-08-22T16:13:34.540Z,26.07
2022-08-22T16:17:45.964Z,26.63
2022-08-22T16:22:13.227Z,27.18
2022-08-22T16:26:17.933Z,27.28
2022-08-22T16:30:34.636Z,27.17
2022-08-22T16:34:45.787Z,25.83
2022-08-22T16:38:51.478Z,25.05
2022-08-22T16:43:12.448Z,24.65
2022-08-22T16:47:18.793Z,25.17
2022-08-22T16:51:22.852Z,25.32
2022-08-22T16:55:49.365Z,25.39
2022-08-22T17:00:04.713Z,25.69
2022-08-22T17:04:18.387Z,25.13
2022-08-22T17:08:48.023Z,25.65
2022-08-22T17:13:08.659Z,25.46
2022-08-22T17:17:24.454Z,25.36
2022-08-22T17:21:30.573Z,25.76
2022-08-22T17:25:38.901Z,25.84
2022-08-22T17:29:55.012Z,26.10
2022-08-22T17:34:07.172Z,27.19
2022-08-22T17:38:19.648Z,27.88
2022-08-22T17:42:39.030Z,28.67
2022-08-22T17:46:50.709Z,29.03
2022-08-22T17:50:57.448Z,29.43
2022-08-22T17:55:05.015Z,30.07
2022-08-22T17:59:16.939Z,30.39
2022-08-22T18:03:28.704Z,31.63
2022-08-22T18:07:41.524Z,32.91
2022-08-22T18:11:49.423Z,34.18
2022-08-22T18:15:58.265Z,34.65
2022-08-22T18:20:07.744Z,35.29
2022-08-22T18:24:20.024Z,35.98
2022-08-22T18:28:26.761Z,36.60
2022-08-22T18:32:35.675Z,36.92
2022-08-22T18:36:47.995Z,37.80
2022-08-22T18:40:58.186Z,38.64
2022-08-22T18:45:00.835Z,39.59
2022-08-22T18:49:15.406Z,39.77
2022-08-22T18:53:37.575Z,41.24
2022-08-22T18:58:03.536Z,42.21
2022-08-22T19:02:33.821Z,42.97
2022-08-22T19:06:55.351Z,43.19
2022-08-22T19:11:13.785Z,43.43
2022-08-22T19:15:33.381Z,43.99
2022-08-22T19:20:03.956Z,44.62
2022-08-22T19:24:12.173Z,45.30
2022-08-22T19:28:26.645Z,45.46
2022-08-22T19:33:00.307Z,45.79
2022-08-22T19:37:30.759Z,45.77
2022-08-22T19:41:44.761Z,46.27
2022-08-22T19:45:47.939Z,47.93
2022-08-22T19:49:58.685Z,48.75
2022-08-22T19:54:16.994Z,50.04
2022-08-22T19:58:33.592Z,50.74
2022-08-22T20:02:51.711Z,50.73
2022-08-22T20:07:01.110Z,51.44
2022-08-22T20:11:19.644Z,51.77
2022-08-22T20:15:26.831Z,52.00
2022-08-22T20:19:38.994Z,52.89
2022-08-22T20:23:41.656Z,53.60
2022-08-22T20:27:47.574Z,54.62
2022-08-22T20:31:56.748Z,54.52
2022-08-22T20:36:05.129Z,54.21
2022-08-22T20:40:53.318Z,54.46
2022-08-22T20:44:46.351Z,54.60
2022-08-22T20:48:57.621Z,54.94
2022-08-22T20:53:09.695Z,55.24
2022-08-22T20:57:16.030Z,55.10
2022-08-22T21:01:19.337Z,55.06
2022-08-22T21:05:25.088Z,55.24
2022-08-22T21:09:45.448Z,55.28
2022-08-22T21:13:48.780Z,55.08
2022-08-22T21:17:52.114Z,54.69
2022-08-22T21:22:11.975Z,54.79
2022-08-22T21:26:25.024Z,55.18
2022-08-22T21:30:30.205Z,55.34
2022-08-22T21:34:36.531Z,55.67
2022-08-22T21:38:41.499Z,55.72
2022-08-22T21:42:46.688Z,55.58
2022-08-22T21:46:49.388Z,55.83
2022-08-22T21:50:55.069Z,56.04
2022-08-22T21:55:17.823Z,56.76
2022-08-22T21:59:24.883Z,57.07
2022-08-22T22:03:29.914Z,57.72
2022-08-22T22:07:32.500Z,58.30
2022-08-22T22:11:36.514Z,58.36
2022-08-22T22:15:44.030Z,58.71
2022-08-22T22:19:47.267Z,58.90
2022-08-22T22:23:50.553Z,58.98
2022-08-22T22:27:54.598Z,59.38
2022-08-22T22:32:00.868Z,59.18
2022-08-22T22:36:07.787Z,58.87
2022-08-22T22:40:11.374Z,58.80
2022-08-22T22:44:15.376Z,59.40
2022-08-22T22:48:24.307Z,59.77
2022-08-22T22:52:27.376Z,59.62
2022-08-22T22:56:30.647Z,60.12
2022-08-22T23:00:36.805Z,59.61
2022-08-22T23:04:42.015Z,59.57
2022-08-22T23:08:44.896Z,60.31
2022-08-22T23:12:47.608Z,60.80
2022-08-22T23:16:51.651Z,60.85
2022-08-22T23:20:54.222Z,60.85
2022-08-22T23:24:56.829Z,61.00
2022-08-22T23:29:00.267Z,60.56
2022-08-22T23:33:04.186Z,61.33
2022-08-22T23:37:08.101Z,61.02
2022-08-22T23:41:12.110Z,60.30
2022-08-22T23:45:14.838Z,60.64
2022-08-22T23:49:19.695Z,61.02
2022-08-22T23:53:22.264Z,61.32
2022-08-22T23:57:27.527Z,61.69
